China Lake Naws (Armitage Field) Airport
KNID : now visible

Airfield :











YOU CAN JOIN US ON...

 
LOGIN :

Register | Disclaimer

   EN    FR    IT 

 









Legend :    VFR   Marginal VFR   IFR   Intensive IFR   Very Intensive IFR
Visi :
Ceiling :
>= 8 km
>= 3000ft
5 to 8 km
1000 to 3000 ft
1500m to 5 km
500 to 1000 ft
800 to 1500m
200 to 500 ft
< 800m
< 200 ft
Symbols :   Thunderstorms  Fog  Heavy snow  Heavy precipitations  Wind > 20 kt






- Airport Elevation : 2283 ft


KNID - China Lake Naws (Armitage Field)

CURRENT METAR :
  • 030156Z AUTO 22008KT 10SM CLR 19/M06 A2985 RMK AO2 SLP102 T01941056

EXPIRED METARs :
  • 030056Z 20009KT 10SM CLR 21/M03 A2985 RMK AO2 SLP099 T02111033
  • 022356Z 15008KT 10SM CLR 22/M07 A2986 RMK AO2 SLP101 T02171067 10217 20178 56017

TAF COR TAF KNID
Valid from the 02 at 23:00 until the 03 at 23:00 UTC


0223/0323 13008KT 9999 SKC 510109 QNH2981INS WND 090V170
BECMG 0302/0304 22011KT 9999 SKC 500000 QNH2986INS T05/0314Z T23/0322Z LAST NO AMDS AFT 0301 NEXT 0615 COR 2320



MET'MAP, your aeronautical weather chart ! - Copyright ORBIFLY December 2007 - Disclaimer

ORBIFLY MET'MAP TEAM :

Programming & Development : Alexandra Zaïnal
Concept & original design : Baudouin d'Aumeries
Assistance for programming : Marc-Olivier Méhu
Technical & hardware support : Manuel Goepfert

Contact : metmap@orbifly.com




SOURCES & CREDITS :

   NOAA       Earth
Advisory